Terminal Aerodrome Forecast
Issued by NWS

Home | Current Version | Previous Version | Text Only | Print | Product List | Glossary On
Versions: 1 2 3 4 5 6 7 8 9 10 11 12 13 14
000
FTUS46 KSEW 231137
TAFBLI
TAF
KBLI 231137Z 2312/2412 16010G18KT P6SM VCSH BKN025 OVC035
      TEMPO 2315/2319 -SHRA
     FM231900 17010G18KT P6SM VCSH SCT025 BKN035 OVC050
     FM240000 16010G18KT P6SM -SHRA SCT015 OVC025
     FM240800 15006KT P6SM VCSH SCT018 BKN035=

USA.gov is the U.S. government's official web portal to all federal, state and local government web resources and services.